createdAt,value
2023-03-27T00:01:16.290Z,100.00
2023-03-27T00:03:43.345Z,100.00
2023-03-27T00:06:16.778Z,100.00
2023-03-27T00:08:44.683Z,100.00
2023-03-27T00:11:11.767Z,100.00
2023-03-27T00:13:49.206Z,100.00
2023-03-27T00:16:22.746Z,100.00
2023-03-27T00:18:49.745Z,100.00
2023-03-27T00:21:16.490Z,100.00
2023-03-27T00:23:43.042Z,100.00
2023-03-27T00:26:10.639Z,100.00
2023-03-27T00:28:37.197Z,100.00
2023-03-27T00:31:04.232Z,100.00
2023-03-27T00:33:30.707Z,100.00
2023-03-27T00:35:57.242Z,100.00
2023-03-27T00:38:24.452Z,100.00
2023-03-27T00:40:54.418Z,100.00
2023-03-27T00:43:23.097Z,100.00
2023-03-27T00:45:51.904Z,100.00
2023-03-27T00:48:20.665Z,100.00
2023-03-27T00:50:47.963Z,100.00
2023-03-27T00:53:17.900Z,100.00
2023-03-27T00:55:47.293Z,100.00
2023-03-27T00:58:18.402Z,100.00
2023-03-27T01:00:44.934Z,100.00
2023-03-27T01:03:11.823Z,100.00
2023-03-27T01:05:38.432Z,100.00
2023-03-27T01:08:05.214Z,100.00
2023-03-27T01:10:59.348Z,100.00
2023-03-27T01:13:44.728Z,100.00
2023-03-27T01:16:32.208Z,100.00
2023-03-27T01:19:07.775Z,100.00
2023-03-27T01:21:43.230Z,100.00
2023-03-27T01:24:28.201Z,100.00
2023-03-27T01:27:18.546Z,100.00
2023-03-27T01:29:50.589Z,100.00
2023-03-27T01:32:38.745Z,100.00
2023-03-27T01:35:39.262Z,100.00
2023-03-27T01:38:22.914Z,100.00
2023-03-27T01:41:09.883Z,100.00
2023-03-27T01:43:41.724Z,100.00
2023-03-27T01:46:16.734Z,100.00
2023-03-27T01:48:56.140Z,100.00
2023-03-27T01:51:34.430Z,100.00
2023-03-27T01:54:05.778Z,100.00
2023-03-27T01:56:37.466Z,100.00
2023-03-27T01:59:11.485Z,100.00
2023-03-27T02:01:42.380Z,100.00
2023-03-27T02:04:13.555Z,100.00
2023-03-27T02:06:48.709Z,100.00
2023-03-27T02:09:22.213Z,100.00
2023-03-27T02:11:58.183Z,100.00
2023-03-27T02:14:29.641Z,100.00
2023-03-27T02:16:59.136Z,100.00
2023-03-27T02:19:41.296Z,100.00
2023-03-27T02:22:08.020Z,100.00
2023-03-27T02:24:34.534Z,100.00
2023-03-27T02:27:26.708Z,100.00
2023-03-27T02:30:07.363Z,100.00
2023-03-27T02:32:42.747Z,100.00
2023-03-27T02:35:33.922Z,100.00
2023-03-27T02:38:11.641Z,100.00
2023-03-27T02:40:45.496Z,100.00
2023-03-27T02:43:42.702Z,100.00
2023-03-27T02:46:21.837Z,100.00
2023-03-27T02:48:52.194Z,100.00
2023-03-27T02:51:25.022Z,100.00
2023-03-27T02:53:58.395Z,100.00
2023-03-27T02:56:27.610Z,100.00
2023-03-27T02:59:04.040Z,100.00
2023-03-27T03:01:32.591Z,100.00
2023-03-27T03:04:01.961Z,100.00
2023-03-27T03:06:31.190Z,100.00
2023-03-27T03:09:02.237Z,100.00
2023-03-27T03:11:29.649Z,100.00
2023-03-27T03:13:56.426Z,100.00
2023-03-27T03:16:23.517Z,100.00
2023-03-27T03:18:50.862Z,100.00
2023-03-27T03:21:17.384Z,100.00
2023-03-27T03:23:58.274Z,100.00
2023-03-27T03:26:26.961Z,100.00
2023-03-27T03:29:01.410Z,100.00
2023-03-27T03:31:44.396Z,100.00
2023-03-27T03:34:16.731Z,100.00
2023-03-27T03:36:44.562Z,100.00
2023-03-27T03:39:12.490Z,100.00
2023-03-27T03:41:39.400Z,100.00
2023-03-27T03:44:05.817Z,100.00
2023-03-27T03:46:32.308Z,100.00
2023-03-27T03:48:59.448Z,100.00
2023-03-27T03:51:26.309Z,100.00
2023-03-27T03:53:52.970Z,100.00
2023-03-27T03:56:19.624Z,100.00
2023-03-27T03:58:46.167Z,100.00
2023-03-27T04:01:12.664Z,100.00
2023-03-27T04:03:39.482Z,100.00
2023-03-27T04:06:07.635Z,100.00
2023-03-27T04:08:34.983Z,100.00
2023-03-27T04:11:01.613Z,100.00
2023-03-27T04:13:28.135Z,100.00
2023-03-27T04:15:55.331Z,100.00
2023-03-27T04:18:24.559Z,100.00
2023-03-27T04:20:51.247Z,100.00
2023-03-27T04:23:20.512Z,100.00
2023-03-27T04:25:47.382Z,100.00
2023-03-27T04:28:17.402Z,100.00
2023-03-27T04:30:44.672Z,100.00
2023-03-27T04:33:18.296Z,100.00
2023-03-27T04:35:45.997Z,100.00
2023-03-27T04:38:31.676Z,100.00
2023-03-27T04:40:58.485Z,100.00
2023-03-27T04:43:26.409Z,100.00
2023-03-27T04:45:53.408Z,100.00
2023-03-27T04:48:21.453Z,100.00
2023-03-27T04:50:51.282Z,100.00
2023-03-27T04:53:20.393Z,100.00
2023-03-27T04:55:51.144Z,100.00
2023-03-27T04:58:18.867Z,100.00
2023-03-27T05:00:50.409Z,100.00
2023-03-27T05:03:20.961Z,100.00
2023-03-27T05:05:49.561Z,100.00
2023-03-27T05:08:16.974Z,100.00
2023-03-27T05:10:44.431Z,100.00
2023-03-27T05:13:11.018Z,100.00
2023-03-27T05:15:39.005Z,100.00
2023-03-27T05:18:07.205Z,100.00
2023-03-27T05:20:35.081Z,100.00
2023-03-27T05:23:02.160Z,100.00
2023-03-27T05:25:31.681Z,100.00
2023-03-27T05:27:58.535Z,100.00
2023-03-27T05:30:26.873Z,100.00
2023-03-27T05:32:53.821Z,100.00
2023-03-27T05:35:22.492Z,100.00
2023-03-27T05:37:53.489Z,100.00
2023-03-27T05:40:22.332Z,100.00
2023-03-27T05:42:50.441Z,100.00
2023-03-27T05:45:17.923Z,100.00
2023-03-27T05:47:49.839Z,100.00
2023-03-27T05:50:17.916Z,100.00
2023-03-27T05:52:44.406Z,100.00
2023-03-27T05:55:11.478Z,100.00
2023-03-27T05:57:39.363Z,100.00
2023-03-27T06:00:14.131Z,100.00
2023-03-27T06:02:44.931Z,100.00
2023-03-27T06:05:16.003Z,100.00
2023-03-27T06:07:43.762Z,100.00
2023-03-27T06:10:13.740Z,100.00
2023-03-27T06:12:41.643Z,100.00
2023-03-27T06:15:09.424Z,100.00
2023-03-27T06:17:38.523Z,100.00
2023-03-27T06:20:12.919Z,100.00
2023-03-27T06:22:49.698Z,100.00
2023-03-27T06:25:16.846Z,100.00
2023-03-27T06:27:47.676Z,100.00
2023-03-27T06:30:17.485Z,100.00
2023-03-27T06:32:49.388Z,100.00
2023-03-27T06:35:16.723Z,100.00
2023-03-27T06:37:48.326Z,100.00
2023-03-27T06:40:25.612Z,100.00
2023-03-27T06:42:56.217Z,100.00
2023-03-27T06:45:24.569Z,100.00
2023-03-27T06:47:54.678Z,100.00
2023-03-27T06:50:25.192Z,100.00
2023-03-27T06:52:51.792Z,100.00
2023-03-27T06:55:20.990Z,100.00
2023-03-27T06:57:52.606Z,100.00
2023-03-27T07:00:24.294Z,100.00
2023-03-27T07:02:55.279Z,100.00
2023-03-27T07:05:22.805Z,100.00
2023-03-27T07:07:49.580Z,100.00
2023-03-27T07:10:16.195Z,100.00
2023-03-27T07:12:47.169Z,100.00
2023-03-27T07:15:14.201Z,100.00
2023-03-27T07:17:48.768Z,100.00
2023-03-27T07:20:16.391Z,100.00
2023-03-27T07:22:43.137Z,100.00
2023-03-27T07:25:11.265Z,100.00
2023-03-27T07:27:38.714Z,100.00
2023-03-27T07:30:08.075Z,100.00
2023-03-27T07:32:37.985Z,100.00
2023-03-27T07:35:05.440Z,100.00
2023-03-27T07:37:31.990Z,100.00
2023-03-27T07:39:58.513Z,100.00
2023-03-27T07:42:25.046Z,100.00
2023-03-27T07:44:51.940Z,100.00
2023-03-27T07:47:18.384Z,100.00
2023-03-27T07:49:44.880Z,100.00
2023-03-27T07:52:11.568Z,100.00
2023-03-27T07:54:38.066Z,100.00
2023-03-27T07:57:05.258Z,100.00
2023-03-27T07:59:32.486Z,100.00
2023-03-27T08:01:58.950Z,100.00
2023-03-27T08:04:25.460Z,100.00
2023-03-27T08:06:54.623Z,100.00
2023-03-27T08:09:21.202Z,100.00
2023-03-27T08:11:50.489Z,100.00
2023-03-27T08:14:17.268Z,100.00
2023-03-27T08:16:43.883Z,100.00
2023-03-27T08:19:11.946Z,100.00
2023-03-27T08:21:38.551Z,100.00
2023-03-27T08:24:05.486Z,100.00
2023-03-27T08:26:32.211Z,100.00
2023-03-27T08:28:59.221Z,100.00
2023-03-27T08:31:27.873Z,100.00
2023-03-27T08:33:54.528Z,100.00
2023-03-27T08:36:21.104Z,100.00
2023-03-27T08:38:47.548Z,100.00
2023-03-27T08:41:27.411Z,100.00
2023-03-27T08:43:56.248Z,100.00
2023-03-27T08:46:27.116Z,100.00
2023-03-27T08:49:16.536Z,100.00
2023-03-27T08:51:52.487Z,100.00
2023-03-27T08:54:35.896Z,100.00
2023-03-27T08:57:04.915Z,99.83
2023-03-27T08:59:31.532Z,100.00
2023-03-27T09:02:09.573Z,100.00
2023-03-27T09:05:14.283Z,96.08
2023-03-27T09:07:52.161Z,94.44
2023-03-27T09:10:50.001Z,93.54
2023-03-27T09:13:20.923Z,94.17
2023-03-27T09:15:53.775Z,91.70
2023-03-27T09:18:34.048Z,89.69
2023-03-27T09:21:10.968Z,91.62
2023-03-27T09:23:46.327Z,94.40
2023-03-27T09:26:21.636Z,88.88
2023-03-27T09:28:51.522Z,91.45
2023-03-27T09:31:29.066Z,89.62
2023-03-27T09:33:58.452Z,90.30
2023-03-27T09:36:24.959Z,93.36
2023-03-27T09:38:58.590Z,90.44
2023-03-27T09:41:41.340Z,89.92
2023-03-27T09:44:07.976Z,86.72
2023-03-27T09:46:36.706Z,82.86
2023-03-27T09:49:12.526Z,84.05
2023-03-27T09:51:46.083Z,85.84
2023-03-27T09:54:14.528Z,85.17
2023-03-27T09:56:45.013Z,86.12
2023-03-27T09:59:23.930Z,86.23
2023-03-27T10:01:53.220Z,85.70
2023-03-27T10:04:22.946Z,81.34
2023-03-27T10:07:01.615Z,80.87
2023-03-27T10:09:38.885Z,83.57
2023-03-27T10:12:05.535Z,82.76
2023-03-27T10:14:34.680Z,83.39
2023-03-27T10:17:02.379Z,82.52
2023-03-27T10:19:37.139Z,81.48
2023-03-27T10:22:15.990Z,81.91
2023-03-27T10:24:46.346Z,86.47
2023-03-27T10:27:19.432Z,93.84
2023-03-27T10:29:45.901Z,96.56
2023-03-27T10:32:12.443Z,88.80
2023-03-27T10:34:51.444Z,84.09
2023-03-27T10:37:27.959Z,79.76
2023-03-27T10:39:56.144Z,77.57
2023-03-27T10:42:26.452Z,77.43
2023-03-27T10:44:56.235Z,79.68
2023-03-27T10:47:25.646Z,83.05
2023-03-27T10:50:03.804Z,86.32
2023-03-27T10:53:09.131Z,87.26
2023-03-27T10:55:44.852Z,85.91
2023-03-27T10:58:23.700Z,83.97
2023-03-27T11:01:05.515Z,85.01
2023-03-27T11:04:07.109Z,84.50
2023-03-27T11:06:40.821Z,85.25
2023-03-27T11:09:34.054Z,83.28
2023-03-27T11:12:07.369Z,84.53
2023-03-27T11:15:02.446Z,85.67
2023-03-27T11:17:38.318Z,83.94
2023-03-27T11:20:16.141Z,82.64
2023-03-27T11:22:47.152Z,79.89
2023-03-27T11:25:21.197Z,82.14
2023-03-27T11:27:55.954Z,84.34
2023-03-27T11:30:55.902Z,76.96
2023-03-27T11:33:34.685Z,76.90
2023-03-27T11:36:03.814Z,78.88
2023-03-27T11:38:32.933Z,79.66
2023-03-27T11:40:59.616Z,81.57
2023-03-27T11:43:26.284Z,76.54
2023-03-27T11:46:04.799Z,74.34
2023-03-27T11:48:52.673Z,72.72
2023-03-27T11:51:49.723Z,70.85
2023-03-27T11:54:24.337Z,71.98
2023-03-27T11:56:55.722Z,73.63
2023-03-27T11:59:34.321Z,70.19
2023-03-27T12:02:28.944Z,68.63
2023-03-27T12:05:01.732Z,63.51
2023-03-27T12:07:38.950Z,64.11
2023-03-27T12:10:30.247Z,66.61
2023-03-27T12:13:21.544Z,71.28
2023-03-27T12:16:11.773Z,69.75
2023-03-27T12:19:13.880Z,68.91
2023-03-27T12:21:55.820Z,66.81
2023-03-27T12:24:57.185Z,65.10
2023-03-27T12:27:42.169Z,61.18
2023-03-27T12:30:26.556Z,62.38
2023-03-27T12:33:00.230Z,61.77
2023-03-27T12:35:30.638Z,62.46
2023-03-27T12:37:59.925Z,64.67
2023-03-27T12:40:37.793Z,64.37
2023-03-27T12:43:10.873Z,64.66
2023-03-27T12:45:47.432Z,65.15
2023-03-27T12:48:19.835Z,65.69
2023-03-27T12:51:12.128Z,63.15
2023-03-27T12:53:38.637Z,61.18
2023-03-27T12:56:27.348Z,62.70
2023-03-27T12:58:54.765Z,58.28
2023-03-27T13:01:52.358Z,59.41
2023-03-27T13:04:24.929Z,60.39
2023-03-27T13:07:20.384Z,60.49
2023-03-27T13:09:54.669Z,56.61
2023-03-27T13:12:47.375Z,55.79
2023-03-27T13:16:22.672Z,55.55
2023-03-27T13:19:13.040Z,61.49
2023-03-27T13:21:46.998Z,62.49
2023-03-27T13:24:36.677Z,61.92
2023-03-27T13:27:25.488Z,67.96
2023-03-27T13:29:53.111Z,71.54
2023-03-27T13:32:31.067Z,74.14
2023-03-27T13:35:08.507Z,75.03
2023-03-27T13:37:36.850Z,68.32
2023-03-27T13:40:26.686Z,75.57
2023-03-27T13:43:04.909Z,77.76
2023-03-27T13:45:53.919Z,81.98
2023-03-27T13:48:24.972Z,84.86
2023-03-27T13:51:29.060Z,88.63
2023-03-27T13:54:08.486Z,90.05
2023-03-27T13:56:53.610Z,91.68
2023-03-27T13:59:31.568Z,91.76
2023-03-27T14:02:04.199Z,91.41
2023-03-27T14:05:17.476Z,90.94
2023-03-27T14:07:58.413Z,90.21
2023-03-27T14:11:01.840Z,88.84
2023-03-27T14:14:03.927Z,83.15
2023-03-27T14:16:50.306Z,91.80
2023-03-27T14:19:41.730Z,100.00
2023-03-27T14:22:14.671Z,100.00
2023-03-27T14:24:53.522Z,100.00
2023-03-27T14:27:21.387Z,100.00
2023-03-27T14:29:51.949Z,100.00
2023-03-27T14:32:19.068Z,100.00
2023-03-27T14:34:54.515Z,100.00
2023-03-27T14:37:29.850Z,100.00
2023-03-27T14:39:57.962Z,100.00
2023-03-27T14:42:33.074Z,100.00
2023-03-27T14:45:10.936Z,100.00
2023-03-27T14:47:37.515Z,100.00
2023-03-27T14:50:06.148Z,100.00
2023-03-27T14:52:35.954Z,100.00
2023-03-27T14:55:04.015Z,100.00
2023-03-27T14:57:30.569Z,100.00
2023-03-27T14:59:57.407Z,100.00
2023-03-27T15:02:26.692Z,100.00
2023-03-27T15:05:00.995Z,100.00
2023-03-27T15:07:33.888Z,100.00
2023-03-27T15:10:06.461Z,100.00
2023-03-27T15:12:37.445Z,100.00
2023-03-27T15:15:21.599Z,100.00
2023-03-27T15:17:50.532Z,100.00
2023-03-27T15:20:19.485Z,100.00
2023-03-27T15:22:51.248Z,100.00
2023-03-27T15:25:30.881Z,100.00
2023-03-27T15:28:00.222Z,100.00
2023-03-27T15:30:40.300Z,100.00
2023-03-27T15:33:12.349Z,100.00
2023-03-27T15:35:45.006Z,100.00
2023-03-27T15:38:17.097Z,100.00
2023-03-27T15:40:46.707Z,100.00
2023-03-27T15:43:13.268Z,100.00
2023-03-27T15:45:41.059Z,100.00
2023-03-27T15:48:18.186Z,100.00
2023-03-27T15:50:57.879Z,100.00
2023-03-27T15:53:38.245Z,100.00
2023-03-27T15:56:29.773Z,100.00
2023-03-27T15:59:01.947Z,100.00
2023-03-27T16:01:32.641Z,100.00
2023-03-27T16:04:04.983Z,100.00
2023-03-27T16:06:36.508Z,100.00
2023-03-27T16:09:05.759Z,100.00
2023-03-27T16:11:34.982Z,100.00
2023-03-27T16:14:01.887Z,100.00
2023-03-27T16:16:31.053Z,100.00
2023-03-27T16:19:12.819Z,100.00
2023-03-27T16:21:54.127Z,100.00
2023-03-27T16:24:20.893Z,100.00
2023-03-27T16:26:47.624Z,100.00
2023-03-27T16:29:14.869Z,100.00
2023-03-27T16:31:41.777Z,100.00
2023-03-27T16:34:23.338Z,100.00
2023-03-27T16:36:50.326Z,100.00
2023-03-27T16:39:17.151Z,100.00
2023-03-27T16:41:43.744Z,100.00
2023-03-27T16:44:11.086Z,100.00
2023-03-27T16:46:37.613Z,100.00
2023-03-27T16:49:04.190Z,100.00
2023-03-27T16:51:31.164Z,100.00
2023-03-27T16:53:57.677Z,100.00
2023-03-27T16:56:24.274Z,100.00
2023-03-27T16:58:51.153Z,100.00
2023-03-27T17:01:17.750Z,100.00
2023-03-27T17:03:44.384Z,100.00
2023-03-27T17:06:12.847Z,100.00
2023-03-27T17:08:39.450Z,100.00
2023-03-27T17:11:08.801Z,100.00
2023-03-27T17:13:35.955Z,100.00
2023-03-27T17:16:03.286Z,100.00
2023-03-27T17:18:29.868Z,100.00
2023-03-27T17:20:56.417Z,100.00
2023-03-27T17:23:23.287Z,100.00
2023-03-27T17:25:50.097Z,100.00
2023-03-27T17:28:17.042Z,100.00
2023-03-27T17:30:56.677Z,100.00
2023-03-27T17:33:30.394Z,100.00
2023-03-27T17:35:57.525Z,100.00
2023-03-27T17:38:24.699Z,100.00
2023-03-27T17:40:51.518Z,100.00
2023-03-27T17:43:18.294Z,100.00
2023-03-27T17:45:45.092Z,100.00
2023-03-27T17:48:11.556Z,100.00
2023-03-27T17:50:38.739Z,100.00
2023-03-27T17:53:05.291Z,100.00
2023-03-27T17:55:31.850Z,100.00
2023-03-27T17:58:08.718Z,100.00
2023-03-27T18:00:37.421Z,100.00
2023-03-27T18:03:04.618Z,100.00
2023-03-27T18:05:37.479Z,100.00
2023-03-27T18:08:04.458Z,100.00
2023-03-27T18:10:31.366Z,100.00
2023-03-27T18:12:58.734Z,100.00
2023-03-27T18:15:25.422Z,100.00
2023-03-27T18:17:51.986Z,100.00
2023-03-27T18:20:18.449Z,100.00
2023-03-27T18:22:45.187Z,100.00
2023-03-27T18:25:11.817Z,100.00
2023-03-27T18:27:40.255Z,100.00
2023-03-27T18:30:09.117Z,100.00
2023-03-27T18:32:35.618Z,100.00
2023-03-27T18:35:02.123Z,100.00
2023-03-27T18:37:28.551Z,100.00
2023-03-27T18:39:55.170Z,100.00
2023-03-27T18:42:21.672Z,100.00
2023-03-27T18:44:48.357Z,100.00
2023-03-27T18:47:14.852Z,100.00
2023-03-27T18:49:43.336Z,100.00
2023-03-27T18:52:12.008Z,100.00
2023-03-27T18:54:38.433Z,100.00
2023-03-27T18:57:05.567Z,100.00
2023-03-27T18:59:32.175Z,100.00
2023-03-27T19:01:58.715Z,100.00
2023-03-27T19:04:25.380Z,100.00
2023-03-27T19:06:51.865Z,100.00
2023-03-27T19:09:19.942Z,100.00
2023-03-27T19:11:48.056Z,100.00
2023-03-27T19:14:14.592Z,100.00
2023-03-27T19:16:41.129Z,100.00
2023-03-27T19:19:07.665Z,100.00
2023-03-27T19:21:34.038Z,100.00
2023-03-27T19:24:00.639Z,100.00
2023-03-27T19:26:27.223Z,100.00
2023-03-27T19:28:53.733Z,100.00
2023-03-27T19:31:20.371Z,100.00
2023-03-27T19:33:46.964Z,100.00
2023-03-27T19:36:13.907Z,100.00
2023-03-27T19:38:40.555Z,100.00
2023-03-27T19:41:10.839Z,100.00
2023-03-27T19:43:37.348Z,100.00
2023-03-27T19:46:15.935Z,100.00
2023-03-27T19:48:44.451Z,100.00
2023-03-27T19:51:11.087Z,100.00
2023-03-27T19:53:37.930Z,100.00
2023-03-27T19:56:04.717Z,100.00
2023-03-27T19:58:31.548Z,100.00
2023-03-27T20:00:59.264Z,100.00
2023-03-27T20:03:27.241Z,100.00
2023-03-27T20:05:56.032Z,100.00
2023-03-27T20:08:37.973Z,100.00
2023-03-27T20:11:05.336Z,100.00
2023-03-27T20:13:35.429Z,100.00
2023-03-27T20:16:07.241Z,100.00
2023-03-27T20:18:34.160Z,100.00
2023-03-27T20:21:02.032Z,100.00
2023-03-27T20:23:31.984Z,100.00
2023-03-27T20:26:00.497Z,100.00
2023-03-27T20:28:27.470Z,100.00
2023-03-27T20:30:53.916Z,100.00
2023-03-27T20:33:20.820Z,100.00
2023-03-27T20:35:47.383Z,100.00
2023-03-27T20:38:15.022Z,100.00
2023-03-27T20:40:53.698Z,100.00
2023-03-27T20:43:22.802Z,100.00
2023-03-27T20:45:53.395Z,100.00
2023-03-27T20:48:21.930Z,100.00
2023-03-27T20:50:51.376Z,100.00
2023-03-27T20:53:19.169Z,100.00
2023-03-27T20:56:02.853Z,100.00
2023-03-27T20:58:31.826Z,100.00
2023-03-27T21:00:58.685Z,100.00
2023-03-27T21:03:25.376Z,100.00
2023-03-27T21:05:51.952Z,100.00
2023-03-27T21:08:18.419Z,100.00
2023-03-27T21:10:53.580Z,100.00
2023-03-27T21:13:20.533Z,100.00
2023-03-27T21:15:47.368Z,100.00
2023-03-27T21:18:13.868Z,100.00
2023-03-27T21:20:40.348Z,100.00
2023-03-27T21:23:06.745Z,100.00
2023-03-27T21:25:34.413Z,100.00
2023-03-27T21:28:01.155Z,100.00
2023-03-27T21:30:46.911Z,100.00
2023-03-27T21:33:16.098Z,100.00
2023-03-27T21:35:45.715Z,100.00
2023-03-27T21:38:13.741Z,100.00
2023-03-27T21:40:40.827Z,100.00
2023-03-27T21:43:08.838Z,100.00
2023-03-27T21:45:36.286Z,100.00
2023-03-27T21:48:03.029Z,100.00
2023-03-27T21:50:29.788Z,100.00
2023-03-27T21:52:56.914Z,100.00
2023-03-27T21:55:23.370Z,100.00
2023-03-27T21:57:49.943Z,100.00
2023-03-27T22:00:16.736Z,100.00
2023-03-27T22:02:43.227Z,100.00
2023-03-27T22:05:09.777Z,100.00
2023-03-27T22:07:36.385Z,100.00
2023-03-27T22:10:06.226Z,100.00
2023-03-27T22:12:36.402Z,100.00
2023-03-27T22:15:03.536Z,100.00
2023-03-27T22:17:30.345Z,100.00
2023-03-27T22:19:57.528Z,100.00
2023-03-27T22:22:24.887Z,100.00
2023-03-27T22:24:51.409Z,100.00
2023-03-27T22:27:18.270Z,100.00
2023-03-27T22:29:44.725Z,100.00
2023-03-27T22:32:11.460Z,100.00
2023-03-27T22:34:37.967Z,100.00
2023-03-27T22:37:04.493Z,100.00
2023-03-27T22:39:31.535Z,100.00
2023-03-27T22:41:58.157Z,100.00
2023-03-27T22:44:24.751Z,100.00
2023-03-27T22:46:52.895Z,100.00
2023-03-27T22:49:19.972Z,100.00
2023-03-27T22:51:46.489Z,100.00
2023-03-27T22:54:12.977Z,100.00
2023-03-27T22:56:39.445Z,100.00
2023-03-27T22:59:06.093Z,100.00
2023-03-27T23:01:32.892Z,100.00
2023-03-27T23:03:59.529Z,100.00
2023-03-27T23:06:26.282Z,100.00
2023-03-27T23:08:53.005Z,100.00
2023-03-27T23:11:20.018Z,100.00
2023-03-27T23:13:46.561Z,100.00
2023-03-27T23:16:13.187Z,100.00
2023-03-27T23:18:40.242Z,100.00
2023-03-27T23:21:09.706Z,100.00
2023-03-27T23:23:37.668Z,100.00
2023-03-27T23:26:05.360Z,100.00
2023-03-27T23:28:37.123Z,100.00
2023-03-27T23:31:06.494Z,100.00
2023-03-27T23:33:36.102Z,100.00
2023-03-27T23:36:08.830Z,100.00
2023-03-27T23:38:35.547Z,100.00
2023-03-27T23:41:02.476Z,100.00
2023-03-27T23:43:30.018Z,100.00
2023-03-27T23:45:59.305Z,100.00
2023-03-27T23:48:29.545Z,100.00
2023-03-27T23:50:57.084Z,100.00
2023-03-27T23:53:25.739Z,100.00
2023-03-27T23:55:52.843Z,100.00
2023-03-27T23:58:19.958Z,100.00
